createdAt,value
2022-09-23T00:01:09.048Z,12.07
2022-09-23T00:03:38.564Z,11.69
2022-09-23T00:06:11.201Z,11.72
2022-09-23T00:08:38.896Z,11.82
2022-09-23T00:11:12.954Z,11.66
2022-09-23T00:13:41.611Z,11.48
2022-09-23T00:16:11.439Z,11.71
2022-09-23T00:18:38.403Z,11.51
2022-09-23T00:21:11.016Z,11.35
2022-09-23T00:23:38.819Z,11.52
2022-09-23T00:26:07.795Z,11.62
2022-09-23T00:28:34.858Z,11.67
2022-09-23T00:31:07.129Z,11.68
2022-09-23T00:33:34.056Z,11.71
2022-09-23T00:36:02.039Z,11.49
2022-09-23T00:38:29.014Z,11.43
2022-09-23T00:40:56.721Z,11.25
2022-09-23T00:43:38.557Z,11.28
2022-09-23T00:46:08.474Z,11.09
2022-09-23T00:48:37.252Z,11.09
2022-09-23T00:51:07.698Z,11.30
2022-09-23T00:53:34.814Z,11.39
2022-09-23T00:56:04.616Z,11.51
2022-09-23T00:58:34.368Z,11.43
2022-09-23T01:01:02.546Z,11.46
2022-09-23T01:03:30.708Z,11.30
2022-09-23T01:05:58.196Z,11.14
2022-09-23T01:08:27.077Z,11.23
2022-09-23T01:11:06.251Z,11.34
2022-09-23T01:13:52.252Z,11.19
2022-09-23T01:16:28.100Z,10.89
2022-09-23T01:19:17.231Z,11.07
2022-09-23T01:22:05.203Z,11.14
2022-09-23T01:25:09.147Z,11.20
2022-09-23T01:27:54.581Z,11.26
2022-09-23T01:30:45.179Z,11.13
2022-09-23T01:33:33.683Z,11.22
2022-09-23T01:36:24.063Z,11.10
2022-09-23T01:39:15.246Z,11.24
2022-09-23T01:42:05.826Z,11.08
2022-09-23T01:44:36.369Z,10.86
2022-09-23T01:47:11.097Z,10.68
2022-09-23T01:50:37.203Z,11.01
2022-09-23T01:53:14.805Z,10.90
2022-09-23T01:55:48.736Z,10.88
2022-09-23T01:58:22.037Z,10.89
2022-09-23T02:00:56.104Z,11.32
2022-09-23T02:03:28.057Z,11.26
2022-09-23T02:06:10.095Z,11.21
2022-09-23T02:09:08.050Z,11.33
2022-09-23T02:11:36.899Z,11.28
2022-09-23T02:14:10.967Z,11.53
2022-09-23T02:16:43.833Z,11.40
2022-09-23T02:19:27.241Z,11.52
2022-09-23T02:22:08.212Z,11.39
2022-09-23T02:24:38.334Z,11.23
2022-09-23T02:27:24.178Z,11.28
2022-09-23T02:29:54.040Z,11.15
2022-09-23T02:32:32.413Z,11.23
2022-09-23T02:35:15.867Z,11.46
2022-09-23T02:37:48.352Z,11.65
2022-09-23T02:40:24.557Z,11.68
2022-09-23T02:43:19.963Z,11.70
2022-09-23T02:45:47.475Z,11.50
2022-09-23T02:48:20.394Z,11.58
2022-09-23T02:50:47.938Z,11.44
2022-09-23T02:53:18.411Z,11.66
2022-09-23T02:55:45.084Z,11.51
2022-09-23T02:58:14.130Z,11.58
2022-09-23T03:00:47.122Z,11.59
2022-09-23T03:03:34.844Z,11.66
2022-09-23T03:06:09.063Z,11.65
2022-09-23T03:08:51.034Z,11.72
2022-09-23T03:11:18.509Z,11.81
2022-09-23T03:14:00.239Z,11.99
2022-09-23T03:16:53.879Z,11.77
2022-09-23T03:19:27.060Z,12.01
2022-09-23T03:22:07.597Z,12.19
2022-09-23T03:24:36.832Z,11.99
2022-09-23T03:27:13.971Z,11.92
2022-09-23T03:29:47.967Z,11.99
2022-09-23T03:32:17.746Z,11.99
2022-09-23T03:34:48.573Z,11.89
2022-09-23T03:37:27.184Z,11.70
2022-09-23T03:40:22.021Z,11.82
2022-09-23T03:42:51.502Z,11.34
2022-09-23T03:45:23.932Z,11.25
2022-09-23T03:47:50.664Z,11.21
2022-09-23T03:50:21.368Z,11.04
2022-09-23T03:52:49.760Z,11.01
2022-09-23T03:55:17.976Z,11.08
2022-09-23T03:57:45.350Z,11.01
2022-09-23T04:00:13.006Z,11.10
2022-09-23T04:02:40.490Z,10.80
2022-09-23T04:05:09.119Z,10.98
2022-09-23T04:07:35.807Z,10.93
2022-09-23T04:10:02.477Z,11.00
2022-09-23T04:12:29.123Z,11.06
2022-09-23T04:14:55.869Z,11.07
2022-09-23T04:17:22.563Z,11.04
2022-09-23T04:19:49.185Z,11.12
2022-09-23T04:22:16.024Z,11.24
2022-09-23T04:24:42.727Z,11.27
2022-09-23T04:27:09.614Z,11.14
2022-09-23T04:29:36.226Z,11.36
2022-09-23T04:32:02.959Z,11.49
2022-09-23T04:34:29.602Z,11.65
2022-09-23T04:36:56.375Z,11.59
2022-09-23T04:39:23.052Z,11.47
2022-09-23T04:41:49.779Z,11.65
2022-09-23T04:44:16.505Z,11.46
2022-09-23T04:46:46.870Z,11.55
2022-09-23T04:49:14.537Z,11.32
2022-09-23T04:51:43.999Z,11.37
2022-09-23T04:54:12.266Z,10.80
2022-09-23T04:56:39.938Z,11.13
2022-09-23T04:59:08.054Z,10.94
2022-09-23T05:01:36.583Z,10.68
2022-09-23T05:04:07.307Z,10.50
2022-09-23T05:06:35.213Z,10.44
2022-09-23T05:09:04.388Z,10.35
2022-09-23T05:11:31.686Z,10.25
2022-09-23T05:13:58.744Z,10.39
2022-09-23T05:16:26.218Z,10.09
2022-09-23T05:18:53.353Z,9.73
2022-09-23T05:21:22.608Z,10.23
2022-09-23T05:23:55.280Z,10.23
2022-09-23T05:26:28.189Z,10.22
2022-09-23T05:28:55.548Z,10.20
2022-09-23T05:31:24.894Z,10.23
2022-09-23T05:34:02.891Z,10.13
2022-09-23T05:36:36.948Z,10.07
2022-09-23T05:39:05.103Z,10.12
2022-09-23T05:41:31.736Z,10.05
2022-09-23T05:43:59.831Z,9.82
2022-09-23T05:46:29.080Z,9.99
2022-09-23T05:49:08.158Z,9.73
2022-09-23T05:51:35.882Z,9.61
2022-09-23T05:54:04.578Z,9.77
2022-09-23T05:56:32.806Z,9.63
2022-09-23T05:59:01.593Z,9.65
2022-09-23T06:01:34.491Z,9.57
2022-09-23T06:04:03.855Z,9.65
2022-09-23T06:06:33.038Z,9.64
2022-09-23T06:09:00.813Z,9.71
2022-09-23T06:11:30.934Z,9.72
2022-09-23T06:14:02.729Z,9.81
2022-09-23T06:16:32.640Z,9.96
2022-09-23T06:19:06.911Z,9.97
2022-09-23T06:21:36.777Z,9.78
2022-09-23T06:24:04.055Z,9.88
2022-09-23T06:26:34.159Z,10.11
2022-09-23T06:29:02.888Z,10.07
2022-09-23T06:31:33.254Z,10.01
2022-09-23T06:34:09.534Z,10.04
2022-09-23T06:36:43.042Z,10.25
2022-09-23T06:39:14.052Z,10.36
2022-09-23T06:41:40.821Z,10.24
2022-09-23T06:44:07.756Z,10.07
2022-09-23T06:46:35.740Z,10.03
2022-09-23T06:49:04.017Z,10.45
2022-09-23T06:51:30.929Z,9.99
2022-09-23T06:53:57.708Z,10.26
2022-09-23T06:56:25.067Z,10.57
2022-09-23T06:58:53.483Z,10.66
2022-09-23T07:01:20.502Z,10.23
2022-09-23T07:03:48.640Z,11.44
2022-09-23T07:06:16.241Z,12.37
2022-09-23T07:08:45.111Z,12.97
2022-09-23T07:11:13.612Z,13.56
2022-09-23T07:13:42.806Z,13.76
2022-09-23T07:16:11.825Z,13.77
2022-09-23T07:18:40.132Z,13.96
2022-09-23T07:21:19.102Z,14.33
2022-09-23T07:23:52.739Z,14.55
2022-09-23T07:26:21.505Z,14.77
2022-09-23T07:28:52.983Z,14.58
2022-09-23T07:31:34.434Z,14.96
2022-09-23T07:34:08.537Z,15.17
2022-09-23T07:36:37.757Z,15.40
2022-09-23T07:39:04.801Z,15.38
2022-09-23T07:41:33.447Z,15.54
2022-09-23T07:44:01.333Z,15.33
2022-09-23T07:46:30.885Z,15.85
2022-09-23T07:48:58.170Z,15.68
2022-09-23T07:51:37.581Z,15.83
2022-09-23T07:54:10.715Z,16.30
2022-09-23T07:56:40.139Z,16.42
2022-09-23T07:59:09.952Z,16.68
2022-09-23T08:13:02.437Z,17.80
2022-09-23T08:26:20.948Z,17.90
2022-09-23T08:42:40.666Z,17.64
2022-09-23T08:45:14.576Z,17.15
2022-09-23T08:47:52.720Z,17.07
2022-09-23T08:50:22.727Z,17.34
2022-09-23T08:52:57.995Z,16.97
2022-09-23T08:55:38.918Z,17.06
2022-09-23T08:58:35.365Z,17.35
2022-09-23T09:01:14.957Z,16.99
2022-09-23T09:04:06.545Z,17.37
2022-09-23T09:06:53.439Z,17.13
2022-09-23T09:15:12.846Z,16.96
2022-09-23T09:18:06.991Z,16.87
2022-09-23T09:44:19.408Z,17.29
2022-09-23T09:47:06.568Z,17.10
2022-09-23T09:49:59.157Z,17.53
2022-09-23T09:52:29.930Z,16.98
2022-09-23T09:55:17.873Z,17.47
2022-09-23T09:58:05.846Z,17.60
2022-09-23T10:00:43.221Z,17.43
2022-09-23T10:03:13.174Z,17.75
2022-09-23T10:05:46.432Z,17.83
2022-09-23T10:08:29.187Z,17.69
2022-09-23T10:10:59.122Z,18.14
2022-09-23T10:13:28.160Z,17.94
2022-09-23T10:15:56.383Z,17.61
2022-09-23T10:44:23.889Z,18.79
2022-09-23T12:16:22.755Z,18.92
2022-09-23T12:28:15.983Z,18.45
2022-09-23T12:44:41.981Z,17.83
2022-09-23T12:55:36.800Z,19.42
2022-09-23T13:01:09.893Z,18.91
2022-09-23T13:03:55.651Z,18.49
2022-09-23T13:06:40.990Z,18.82
2022-09-23T13:09:17.092Z,19.20
2022-09-23T13:11:48.133Z,18.84
2022-09-23T13:14:26.755Z,19.27
2022-09-23T13:16:55.494Z,18.94
2022-09-23T13:19:28.500Z,18.84
2022-09-23T13:22:09.274Z,19.05
2022-09-23T13:24:39.695Z,18.83
2022-09-23T13:27:33.542Z,19.14
2022-09-23T13:30:27.055Z,18.62
2022-09-23T13:33:01.547Z,19.06
2022-09-23T13:35:50.980Z,18.87
2022-09-23T13:38:21.166Z,19.01
2022-09-23T13:40:49.353Z,18.83
2022-09-23T13:43:27.676Z,18.57
2022-09-23T13:45:55.477Z,18.37
2022-09-23T13:48:25.839Z,17.94
2022-09-23T13:50:56.430Z,17.90
2022-09-23T13:53:23.076Z,17.93
2022-09-23T13:56:02.196Z,18.26
2022-09-23T13:58:31.680Z,18.16
2022-09-23T14:00:58.849Z,17.83
2022-09-23T14:03:37.122Z,18.03
2022-09-23T14:06:15.539Z,17.60
2022-09-23T14:08:46.206Z,17.63
2022-09-23T14:11:40.378Z,17.66
2022-09-23T14:14:07.980Z,17.67
2022-09-23T14:16:40.940Z,17.48
2022-09-23T14:19:17.722Z,17.68
2022-09-23T14:21:49.259Z,17.46
2022-09-23T14:24:18.235Z,17.36
2022-09-23T14:27:06.960Z,17.67
2022-09-23T14:29:36.489Z,17.64
2022-09-23T14:32:11.577Z,17.70
2022-09-23T14:35:02.912Z,17.53
2022-09-23T14:37:48.356Z,17.74
2022-09-23T14:40:19.132Z,17.25
2022-09-23T14:42:52.872Z,17.09
2022-09-23T14:45:25.819Z,17.04
2022-09-23T14:48:32.985Z,16.46
2022-09-23T14:51:10.814Z,16.09
2022-09-23T14:53:43.202Z,15.82
2022-09-23T14:56:25.267Z,16.05
2022-09-23T14:58:56.327Z,15.30
2022-09-23T15:01:28.395Z,16.25
2022-09-23T15:03:56.892Z,15.79
2022-09-23T15:09:08.774Z,16.30
2022-09-23T15:11:36.289Z,16.16
2022-09-23T15:14:33.152Z,16.03
2022-09-23T15:16:55.387Z,16.10
2022-09-23T15:19:24.335Z,15.88
2022-09-23T15:21:54.650Z,15.71
2022-09-23T15:24:34.765Z,16.22
2022-09-23T15:27:02.443Z,15.56
2022-09-23T15:29:30.095Z,15.79
2022-09-23T15:31:57.596Z,15.96
2022-09-23T15:34:27.441Z,15.33
2022-09-23T15:36:54.998Z,15.53
2022-09-23T15:39:36.039Z,16.13
2022-09-23T15:47:25.335Z,15.97
2022-09-23T15:49:52.827Z,15.88
2022-09-23T15:52:24.018Z,15.63
2022-09-23T15:54:51.686Z,16.01
2022-09-23T15:57:19.674Z,16.17
2022-09-23T15:59:46.799Z,16.03
2022-09-23T16:02:23.375Z,15.94
2022-09-23T16:04:51.724Z,16.24
2022-09-23T16:07:20.009Z,15.97
2022-09-23T16:09:46.870Z,16.19
2022-09-23T16:12:13.948Z,16.14
2022-09-23T16:14:40.721Z,16.24
2022-09-23T16:17:09.644Z,16.44
2022-09-23T16:19:36.400Z,16.41
2022-09-23T16:22:04.884Z,16.37
2022-09-23T16:24:31.713Z,16.60
2022-09-23T16:27:01.092Z,16.45
2022-09-23T16:29:28.046Z,16.22
2022-09-23T16:31:55.818Z,16.44
2022-09-23T16:34:22.678Z,16.00
2022-09-23T16:36:49.664Z,16.18
2022-09-23T16:39:16.455Z,15.98
2022-09-23T16:41:44.021Z,16.42
2022-09-23T16:44:12.684Z,16.31
2022-09-23T16:46:43.057Z,16.29
2022-09-23T16:49:12.338Z,16.35
2022-09-23T16:51:40.240Z,16.18
2022-09-23T16:54:11.129Z,16.50
2022-09-23T16:56:45.313Z,16.17
2022-09-23T16:59:13.988Z,16.38
2022-09-23T17:01:59.107Z,16.04
2022-09-23T17:04:26.075Z,16.18
2022-09-23T17:06:53.637Z,15.97
2022-09-23T17:09:23.417Z,16.36
2022-09-23T17:12:04.334Z,16.30
2022-09-23T17:14:34.956Z,16.16
2022-09-23T17:17:01.802Z,15.94
2022-09-23T17:19:28.918Z,15.84
2022-09-23T17:21:55.711Z,15.87
2022-09-23T17:24:22.915Z,15.86
2022-09-23T17:26:52.980Z,15.85
2022-09-23T17:29:20.771Z,15.71
2022-09-23T17:31:48.605Z,16.19
2022-09-23T17:34:17.060Z,15.99
2022-09-23T17:36:45.851Z,15.69
2022-09-23T17:39:12.850Z,15.90
2022-09-23T17:41:49.157Z,16.17
2022-09-23T17:44:18.234Z,15.83
2022-09-23T17:46:45.486Z,15.98
2022-09-23T17:49:12.367Z,15.67
2022-09-23T17:51:39.108Z,15.79
2022-09-23T17:54:06.580Z,15.98
2022-09-23T17:56:34.181Z,15.78
2022-09-23T17:59:02.179Z,15.84
2022-09-23T18:01:29.741Z,15.86
2022-09-23T18:04:00.492Z,16.05
2022-09-23T18:06:31.758Z,16.02
2022-09-23T18:09:01.793Z,15.85
2022-09-23T18:11:30.758Z,15.84
2022-09-23T18:14:00.867Z,15.67
2022-09-23T18:16:39.658Z,15.84
2022-09-23T18:19:08.635Z,15.65
2022-09-23T18:21:41.551Z,15.69
2022-09-23T18:24:31.320Z,15.45
2022-09-23T18:27:00.010Z,15.66
2022-09-23T18:29:27.184Z,15.63
2022-09-23T18:31:54.069Z,15.50
2022-09-23T18:34:20.922Z,15.32
2022-09-23T18:36:47.692Z,15.49
2022-09-23T18:39:14.834Z,15.24
2022-09-23T18:41:41.554Z,15.55
2022-09-23T18:44:09.016Z,15.46
2022-09-23T18:46:35.903Z,15.38
2022-09-23T18:49:21.237Z,15.14
2022-09-23T18:51:54.730Z,15.36
2022-09-23T18:54:23.174Z,15.40
2022-09-23T18:56:52.674Z,15.45
2022-09-23T18:59:23.966Z,15.28
2022-09-23T19:01:51.576Z,15.26
2022-09-23T19:04:20.668Z,15.31
2022-09-23T19:06:47.770Z,15.33
2022-09-23T19:09:16.703Z,15.34
2022-09-23T19:11:44.451Z,15.22
2022-09-23T19:14:12.004Z,15.32
2022-09-23T19:16:40.340Z,15.31
2022-09-23T19:19:07.329Z,15.26
2022-09-23T19:21:34.730Z,15.22
2022-09-23T19:24:04.420Z,15.35
2022-09-23T19:26:39.621Z,15.26
2022-09-23T19:29:08.504Z,15.13
2022-09-23T19:31:40.347Z,15.16
2022-09-23T19:34:15.751Z,14.96
2022-09-23T19:36:45.446Z,14.85
2022-09-23T19:39:18.059Z,14.69
2022-09-23T19:41:45.858Z,14.66
2022-09-23T19:44:12.939Z,14.75
2022-09-23T19:46:42.879Z,14.83
2022-09-23T19:49:11.136Z,14.46
2022-09-23T19:51:38.978Z,14.38
2022-09-23T19:54:07.403Z,14.33
2022-09-23T19:56:34.796Z,14.41
2022-09-23T19:59:03.172Z,14.49
2022-09-23T20:01:32.248Z,14.61
2022-09-23T20:03:59.515Z,14.49
2022-09-23T20:06:30.422Z,14.20
2022-09-23T20:08:59.584Z,14.02
2022-09-23T20:11:28.653Z,14.30
2022-09-23T20:14:01.976Z,14.09
2022-09-23T20:16:32.423Z,14.03
2022-09-23T20:19:00.946Z,14.11
2022-09-23T20:21:29.373Z,14.00
2022-09-23T20:23:57.216Z,13.97
2022-09-23T20:26:42.751Z,13.74
2022-09-23T20:29:11.005Z,13.83
2022-09-23T20:31:38.086Z,13.76
2022-09-23T20:34:07.191Z,13.68
2022-09-23T20:36:35.448Z,13.63
2022-09-23T20:39:06.046Z,13.45
2022-09-23T20:41:36.792Z,13.55
2022-09-23T20:44:06.386Z,13.26
2022-09-23T20:46:33.300Z,13.00
2022-09-23T20:49:01.557Z,12.81
2022-09-23T20:51:28.194Z,12.97
2022-09-23T20:53:55.118Z,12.65
2022-09-23T20:56:22.028Z,12.67
2022-09-23T20:58:50.468Z,12.79
2022-09-23T21:01:18.294Z,12.99
2022-09-23T21:03:47.673Z,12.87
2022-09-23T21:06:17.586Z,12.63
2022-09-23T21:08:45.129Z,12.61
2022-09-23T21:11:16.792Z,12.82
2022-09-23T21:13:51.214Z,12.81
2022-09-23T21:16:21.550Z,12.53
2022-09-23T21:18:50.561Z,12.80
2022-09-23T21:21:19.794Z,12.78
2022-09-23T21:23:47.832Z,12.67
2022-09-23T21:26:19.462Z,12.68
2022-09-23T21:28:51.434Z,12.73
2022-09-23T21:31:25.536Z,12.68
2022-09-23T21:33:59.349Z,12.61
2022-09-23T21:36:28.196Z,12.54
2022-09-23T21:38:56.144Z,12.47
2022-09-23T21:41:23.774Z,12.46
2022-09-23T21:43:50.962Z,12.25
2022-09-23T21:46:22.923Z,12.35
2022-09-23T21:48:53.394Z,12.34
2022-09-23T21:51:25.675Z,12.44
2022-09-23T21:53:55.004Z,12.31
2022-09-23T21:56:27.375Z,12.30
2022-09-23T21:58:55.423Z,12.46
2022-09-23T22:01:23.661Z,12.19
2022-09-23T22:03:57.886Z,12.35
2022-09-23T22:06:27.730Z,12.38
2022-09-23T22:08:59.874Z,12.32
2022-09-23T22:11:52.972Z,12.31
2022-09-23T22:14:23.643Z,12.44
2022-09-23T22:16:50.777Z,12.38
2022-09-23T22:19:17.459Z,12.23
2022-09-23T22:21:45.775Z,11.99
2022-09-23T22:24:13.290Z,12.34
2022-09-23T22:26:42.428Z,12.40
2022-09-23T22:29:33.036Z,12.44
2022-09-23T22:32:19.805Z,12.39
2022-09-23T22:34:50.451Z,12.41
2022-09-23T22:37:25.788Z,12.43
2022-09-23T22:39:53.225Z,12.33
2022-09-23T22:42:22.638Z,12.34
2022-09-23T22:44:50.141Z,12.41
2022-09-23T22:47:18.147Z,12.35
2022-09-23T22:49:46.267Z,12.38
2022-09-23T22:52:14.022Z,12.20
2022-09-23T22:54:40.732Z,12.37
2022-09-23T22:57:08.323Z,12.37
2022-09-23T22:59:37.392Z,12.27
2022-09-23T23:02:05.263Z,12.22
2022-09-23T23:04:32.233Z,12.31
2022-09-23T23:06:59.009Z,12.32
2022-09-23T23:09:25.855Z,12.33
2022-09-23T23:11:52.850Z,12.26
2022-09-23T23:14:19.820Z,12.17
2022-09-23T23:16:46.888Z,11.93
2022-09-23T23:19:17.131Z,12.19
2022-09-23T23:21:45.658Z,12.24
2022-09-23T23:24:22.094Z,11.98
2022-09-23T23:26:50.075Z,12.20
2022-09-23T23:29:19.079Z,12.10
2022-09-23T23:31:46.123Z,12.08
2022-09-23T23:34:19.029Z,12.11
2022-09-23T23:36:46.809Z,12.00
2022-09-23T23:39:14.052Z,11.71
2022-09-23T23:41:41.753Z,11.86
2022-09-23T23:44:09.067Z,11.81
2022-09-23T23:46:37.399Z,11.83
2022-09-23T23:49:04.875Z,11.70
2022-09-23T23:51:31.791Z,11.61
2022-09-23T23:53:59.895Z,11.73
2022-09-23T23:56:27.587Z,11.70
2022-09-23T23:58:59.907Z,11.71
